sensor_id;sensor_type;location;lat;lon;timestamp;pressure;altitude;pressure_sealevel;temperature;humidity
13080;BME280;6606;49.154;9.280;2023-08-06T00:02:38;98845.41;;;15.63;100.00
13080;BME280;6606;49.154;9.280;2023-08-06T00:05:20;98839.78;;;15.66;100.00
13080;BME280;6606;49.154;9.280;2023-08-06T00:08:02;98844.00;;;15.69;100.00
13080;BME280;6606;49.154;9.280;2023-08-06T00:10:43;98841.63;;;15.75;100.00
13080;BME280;6606;49.154;9.280;2023-08-06T00:13:27;98841.63;;;15.75;100.00
13080;BME280;6606;49.154;9.280;2023-08-06T00:16:09;98846.44;;;15.81;100.00
13080;BME280;6606;49.154;9.280;2023-08-06T00:18:51;98836.88;;;15.89;100.00
13080;BME280;6606;49.154;9.280;2023-08-06T00:21:33;98830.50;;;15.90;100.00
13080;BME280;6606;49.154;9.280;2023-08-06T00:24:15;98822.50;;;15.99;100.00
13080;BME280;6606;49.154;9.280;2023-08-06T00:26:56;98823.91;;;15.74;100.00
13080;BME280;6606;49.154;9.280;2023-08-06T00:29:39;98827.25;;;15.76;100.00
13080;BME280;6606;49.154;9.280;2023-08-06T00:32:21;98824.47;;;15.88;100.00
13080;BME280;6606;49.154;9.280;2023-08-06T00:35:04;98820.09;;;15.87;100.00
13080;BME280;6606;49.154;9.280;2023-08-06T00:37:46;98808.94;;;15.81;100.00
13080;BME280;6606;49.154;9.280;2023-08-06T00:40:28;98811.75;;;15.70;100.00
13080;BME280;6606;49.154;9.280;2023-08-06T00:43:10;98818.81;;;15.61;100.00
13080;BME280;6606;49.154;9.280;2023-08-06T00:45:54;98811.03;;;15.68;100.00
13080;BME280;6606;49.154;9.280;2023-08-06T00:48:36;98803.44;;;15.73;100.00
13080;BME280;6606;49.154;9.280;2023-08-06T00:51:17;98801.63;;;15.64;100.00
13080;BME280;6606;49.154;9.280;2023-08-06T00:54:00;98803.59;;;15.62;100.00
13080;BME280;6606;49.154;9.280;2023-08-06T00:56:42;98792.88;;;15.62;100.00
13080;BME280;6606;49.154;9.280;2023-08-06T00:59:25;98796.19;;;15.45;100.00
13080;BME280;6606;49.154;9.280;2023-08-06T01:02:08;98791.41;;;15.38;100.00
13080;BME280;6606;49.154;9.280;2023-08-06T01:04:50;98789.03;;;15.45;100.00
13080;BME280;6606;49.154;9.280;2023-08-06T01:07:40;98784.88;;;15.31;100.00
13080;BME280;6606;49.154;9.280;2023-08-06T01:10:38;98786.56;;;15.23;100.00
13080;BME280;6606;49.154;9.280;2023-08-06T01:13:29;98778.06;;;15.08;100.00
13080;BME280;6606;49.154;9.280;2023-08-06T01:16:15;98775.59;;;15.16;100.00
13080;BME280;6606;49.154;9.280;2023-08-06T01:18:58;98779.09;;;15.26;100.00
13080;BME280;6606;49.154;9.280;2023-08-06T01:21:41;98771.94;;;15.36;100.00
13080;BME280;6606;49.154;9.280;2023-08-06T01:24:23;98772.50;;;15.30;100.00
13080;BME280;6606;49.154;9.280;2023-08-06T01:27:08;98768.63;;;15.54;100.00
13080;BME280;6606;49.154;9.280;2023-08-06T01:29:58;98752.88;;;15.51;100.00
13080;BME280;6606;49.154;9.280;2023-08-06T01:32:43;98752.88;;;15.51;100.00
13080;BME280;6606;49.154;9.280;2023-08-06T01:35:27;98749.19;;;15.52;100.00
13080;BME280;6606;49.154;9.280;2023-08-06T01:38:14;98749.13;;;15.42;100.00
13080;BME280;6606;49.154;9.280;2023-08-06T01:40:56;98738.44;;;15.42;100.00
13080;BME280;6606;49.154;9.280;2023-08-06T01:43:38;98742.94;;;15.41;100.00
13080;BME280;6606;49.154;9.280;2023-08-06T01:46:19;98741.13;;;15.32;100.00
13080;BME280;6606;49.154;9.280;2023-08-06T01:49:01;98729.56;;;15.41;100.00
13080;BME280;6606;49.154;9.280;2023-08-06T01:51:43;98736.09;;;15.49;100.00
13080;BME280;6606;49.154;9.280;2023-08-06T01:54:26;98735.94;;;15.50;100.00
13080;BME280;6606;49.154;9.280;2023-08-06T01:57:08;98739.47;;;15.60;100.00
13080;BME280;6606;49.154;9.280;2023-08-06T01:59:50;98732.84;;;15.65;100.00
13080;BME280;6606;49.154;9.280;2023-08-06T02:02:32;98733.28;;;15.60;100.00
13080;BME280;6606;49.154;9.280;2023-08-06T02:05:14;98724.28;;;15.61;100.00
13080;BME280;6606;49.154;9.280;2023-08-06T02:07:56;98717.63;;;15.65;100.00
13080;BME280;6606;49.154;9.280;2023-08-06T02:10:39;98718.75;;;15.53;100.00
13080;BME280;6606;49.154;9.280;2023-08-06T02:13:22;98712.56;;;15.62;100.00
13080;BME280;6606;49.154;9.280;2023-08-06T02:16:03;98714.09;;;15.45;100.00
13080;BME280;6606;49.154;9.280;2023-08-06T02:18:48;98715.63;;;15.38;100.00
13080;BME280;6606;49.154;9.280;2023-08-06T02:21:29;98704.63;;;15.31;100.00
13080;BME280;6606;49.154;9.280;2023-08-06T02:24:11;98716.19;;;15.22;100.00
13080;BME280;6606;49.154;9.280;2023-08-06T02:26:54;98710.53;;;15.15;100.00
13080;BME280;6606;49.154;9.280;2023-08-06T02:29:36;98698.69;;;15.18;100.00
13080;BME280;6606;49.154;9.280;2023-08-06T02:32:18;98690.16;;;15.24;100.00
13080;BME280;6606;49.154;9.280;2023-08-06T02:35:00;98697.59;;;15.21;100.00
13080;BME280;6606;49.154;9.280;2023-08-06T02:37:42;98686.47;;;15.25;100.00
13080;BME280;6606;49.154;9.280;2023-08-06T02:40:24;98685.91;;;15.31;100.00
13080;BME280;6606;49.154;9.280;2023-08-06T02:43:07;98677.34;;;15.37;100.00
13080;BME280;6606;49.154;9.280;2023-08-06T02:45:49;98679.72;;;15.40;100.00
13080;BME280;6606;49.154;9.280;2023-08-06T02:48:31;98677.34;;;15.37;100.00
13080;BME280;6606;49.154;9.280;2023-08-06T02:51:12;98682.69;;;15.47;100.00
13080;BME280;6606;49.154;9.280;2023-08-06T02:53:54;98682.69;;;15.37;100.00
13080;BME280;6606;49.154;9.280;2023-08-06T02:56:36;98670.28;;;15.36;100.00
13080;BME280;6606;49.154;9.280;2023-08-06T02:59:30;98670.56;;;15.33;100.00
13080;BME280;6606;49.154;9.280;2023-08-06T03:02:26;98677.72;;;15.23;100.00
13080;BME280;6606;49.154;9.280;2023-08-06T03:05:16;98670.84;;;15.30;100.00
13080;BME280;6606;49.154;9.280;2023-08-06T03:08:00;98670.00;;;15.30;100.00
13080;BME280;6606;49.154;9.280;2023-08-06T03:10:44;98664.94;;;15.17;100.00
13080;BME280;6606;49.154;9.280;2023-08-06T03:13:25;98671.66;;;15.02;100.00
13080;BME280;6606;49.154;9.280;2023-08-06T03:16:09;98664.06;;;15.07;100.00
13080;BME280;6606;49.154;9.280;2023-08-06T03:18:51;98665.22;;;15.14;100.00
13080;BME280;6606;49.154;9.280;2023-08-06T03:21:34;98654.94;;;15.19;100.00
13080;BME280;6606;49.154;9.280;2023-08-06T03:24:17;98668.84;;;15.13;100.00
13080;BME280;6606;49.154;9.280;2023-08-06T03:27:00;98658.19;;;15.32;100.00
13080;BME280;6606;49.154;9.280;2023-08-06T03:29:42;98664.63;;;15.39;100.00
13080;BME280;6606;49.154;9.280;2023-08-06T03:32:25;98662.13;;;15.38;100.00
13080;BME280;6606;49.154;9.280;2023-08-06T03:35:08;98664.84;;;15.48;100.00
13080;BME280;6606;49.154;9.280;2023-08-06T03:37:51;98665.22;;;15.53;100.00
13080;BME280;6606;49.154;9.280;2023-08-06T03:40:34;98669.03;;;15.60;100.00
13080;BME280;6606;49.154;9.280;2023-08-06T03:43:17;98655.66;;;15.60;100.00
13080;BME280;6606;49.154;9.280;2023-08-06T03:45:59;98668.63;;;15.55;100.00
13080;BME280;6606;49.154;9.280;2023-08-06T03:48:43;98670.59;;;15.53;100.00
13080;BME280;6606;49.154;9.280;2023-08-06T03:51:25;98670.88;;;15.59;100.00
13080;BME280;6606;49.154;9.280;2023-08-06T03:54:08;98666.06;;;15.63;100.00
13080;BME280;6606;49.154;9.280;2023-08-06T03:56:50;98669.47;;;15.65;100.00
13080;BME280;6606;49.154;9.280;2023-08-06T03:59:31;98665.94;;;15.55;100.00
13080;BME280;6606;49.154;9.280;2023-08-06T04:02:14;98671.84;;;15.68;100.00
13080;BME280;6606;49.154;9.280;2023-08-06T04:04:57;98670.16;;;15.67;100.00
13080;BME280;6606;49.154;9.280;2023-08-06T04:07:39;98682.84;;;15.65;100.00
13080;BME280;6606;49.154;9.280;2023-08-06T04:10:21;98674.38;;;15.60;100.00
13080;BME280;6606;49.154;9.280;2023-08-06T04:13:02;98683.00;;;15.54;100.00
13080;BME280;6606;49.154;9.280;2023-08-06T04:15:44;98681.72;;;15.58;100.00
13080;BME280;6606;49.154;9.280;2023-08-06T04:18:26;98687.50;;;15.53;100.00
13080;BME280;6606;49.154;9.280;2023-08-06T04:21:09;98686.34;;;15.46;100.00
13080;BME280;6606;49.154;9.280;2023-08-06T04:23:51;98681.81;;;15.37;100.00
13080;BME280;6606;49.154;9.280;2023-08-06T04:26:33;98678.19;;;15.38;100.00
13080;BME280;6606;49.154;9.280;2023-08-06T04:29:15;98678.22;;;15.48;100.00
13080;BME280;6606;49.154;9.280;2023-08-06T04:31:57;98683.97;;;15.62;100.00
13080;BME280;6606;49.154;9.280;2023-08-06T04:34:39;98682.28;;;15.52;100.00
13080;BME280;6606;49.154;9.280;2023-08-06T04:37:22;98691.69;;;15.46;100.00
13080;BME280;6606;49.154;9.280;2023-08-06T04:40:05;98683.91;;;15.24;100.00
13080;BME280;6606;49.154;9.280;2023-08-06T04:42:47;98687.03;;;15.19;100.00
13080;BME280;6606;49.154;9.280;2023-08-06T04:45:29;98691.09;;;15.23;100.00
13080;BME280;6606;49.154;9.280;2023-08-06T04:48:10;98684.47;;;15.08;100.00
13080;BME280;6606;49.154;9.280;2023-08-06T04:50:52;98692.53;;;15.27;100.00
13080;BME280;6606;49.154;9.280;2023-08-06T04:53:36;98690.53;;;15.10;100.00
13080;BME280;6606;49.154;9.280;2023-08-06T04:56:18;98685.47;;;15.07;100.00
13080;BME280;6606;49.154;9.280;2023-08-06T04:58:59;98693.34;;;15.18;100.00
13080;BME280;6606;49.154;9.280;2023-08-06T05:01:41;98684.06;;;15.12;100.00
13080;BME280;6606;49.154;9.280;2023-08-06T05:04:23;98691.94;;;15.24;100.00
13080;BME280;6606;49.154;9.280;2023-08-06T05:07:05;98694.50;;;15.25;100.00
13080;BME280;6606;49.154;9.280;2023-08-06T05:09:48;98686.91;;;15.40;100.00
13080;BME280;6606;49.154;9.280;2023-08-06T05:12:30;98695.91;;;15.39;100.00
13080;BME280;6606;49.154;9.280;2023-08-06T05:15:12;98701.28;;;15.29;100.00
13080;BME280;6606;49.154;9.280;2023-08-06T05:17:53;98711.13;;;15.38;100.00
13080;BME280;6606;49.154;9.280;2023-08-06T05:20:36;98700.69;;;15.26;100.00
13080;BME280;6606;49.154;9.280;2023-08-06T05:23:18;98708.56;;;15.17;100.00
13080;BME280;6606;49.154;9.280;2023-08-06T05:26:01;98709.94;;;14.92;100.00
13080;BME280;6606;49.154;9.280;2023-08-06T05:28:43;98707.19;;;14.73;100.00
13080;BME280;6606;49.154;9.280;2023-08-06T05:31:25;98709.00;;;14.72;100.00
13080;BME280;6606;49.154;9.280;2023-08-06T05:34:07;98709.00;;;14.72;100.00
13080;BME280;6606;49.154;9.280;2023-08-06T05:36:48;98707.63;;;14.78;100.00
13080;BME280;6606;49.154;9.280;2023-08-06T05:39:30;98700.50;;;14.48;100.00
13080;BME280;6606;49.154;9.280;2023-08-06T05:42:13;98701.91;;;14.52;100.00
13080;BME280;6606;49.154;9.280;2023-08-06T05:44:55;98711.63;;;14.63;100.00
13080;BME280;6606;49.154;9.280;2023-08-06T05:47:36;98713.69;;;14.80;100.00
13080;BME280;6606;49.154;9.280;2023-08-06T05:50:18;98706.91;;;14.76;100.00
13080;BME280;6606;49.154;9.280;2023-08-06T05:53:00;98704.34;;;14.65;100.00
13080;BME280;6606;49.154;9.280;2023-08-06T05:55:42;98709.78;;;14.53;100.00
13080;BME280;6606;49.154;9.280;2023-08-06T05:58:25;98710.84;;;14.20;100.00
13080;BME280;6606;49.154;9.280;2023-08-06T06:01:09;98709.41;;;14.37;100.00
13080;BME280;6606;49.154;9.280;2023-08-06T06:03:51;98709.56;;;14.66;100.00
13080;BME280;6606;49.154;9.280;2023-08-06T06:06:32;98705.34;;;14.64;100.00
13080;BME280;6606;49.154;9.280;2023-08-06T06:09:14;98708.44;;;14.69;100.00
13080;BME280;6606;49.154;9.280;2023-08-06T06:11:56;98707.50;;;14.89;100.00
13080;BME280;6606;49.154;9.280;2023-08-06T06:14:39;98707.00;;;15.15;100.00
13080;BME280;6606;49.154;9.280;2023-08-06T06:17:21;98695.63;;;15.32;100.00
13080;BME280;6606;49.154;9.280;2023-08-06T06:20:03;98707.94;;;14.94;100.00
13080;BME280;6606;49.154;9.280;2023-08-06T06:22:45;98702.41;;;15.46;100.00
13080;BME280;6606;49.154;9.280;2023-08-06T06:25:27;98705.34;;;15.33;100.00
13080;BME280;6606;49.154;9.280;2023-08-06T06:28:08;98708.03;;;15.43;100.00
13080;BME280;6606;49.154;9.280;2023-08-06T06:30:51;98706.66;;;15.68;100.00
13080;BME280;6606;49.154;9.280;2023-08-06T06:33:33;98698.16;;;15.92;100.00
13080;BME280;6606;49.154;9.280;2023-08-06T06:36:15;98709.44;;;15.76;100.00
13080;BME280;6606;49.154;9.280;2023-08-06T06:38:57;98706.44;;;16.18;100.00
13080;BME280;6606;49.154;9.280;2023-08-06T06:41:38;98708.56;;;16.24;100.00
13080;BME280;6606;49.154;9.280;2023-08-06T06:44:31;98710.22;;;16.25;100.00
13080;BME280;6606;49.154;9.280;2023-08-06T06:47:14;98706.84;;;16.14;100.00
13080;BME280;6606;49.154;9.280;2023-08-06T06:49:56;98709.38;;;16.25;100.00
13080;BME280;6606;49.154;9.280;2023-08-06T06:52:38;98712.47;;;16.30;100.00
13080;BME280;6606;49.154;9.280;2023-08-06T06:55:19;98710.31;;;16.43;100.00
13080;BME280;6606;49.154;9.280;2023-08-06T06:58:01;98708.47;;;16.44;100.00
13080;BME280;6606;49.154;9.280;2023-08-06T07:00:43;98721.84;;;16.06;100.00
13080;BME280;6606;49.154;9.280;2023-08-06T07:03:26;98718.63;;;15.74;100.00
13080;BME280;6606;49.154;9.280;2023-08-06T07:06:08;98721.19;;;15.56;100.00
13080;BME280;6606;49.154;9.280;2023-08-06T07:08:49;98729.41;;;15.33;100.00
13080;BME280;6606;49.154;9.280;2023-08-06T07:11:31;98719.28;;;15.27;100.00
13080;BME280;6606;49.154;9.280;2023-08-06T07:14:13;98722.97;;;15.46;100.00
13080;BME280;6606;49.154;9.280;2023-08-06T07:16:55;98719.91;;;15.70;100.00
13080;BME280;6606;49.154;9.280;2023-08-06T07:19:38;98721.31;;;15.54;100.00
13080;BME280;6606;49.154;9.280;2023-08-06T07:22:20;98731.28;;;15.52;100.00
13080;BME280;6606;49.154;9.280;2023-08-06T07:25:01;98721.25;;;15.45;100.00
13080;BME280;6606;49.154;9.280;2023-08-06T07:27:43;98730.34;;;15.53;100.00
13080;BME280;6606;49.154;9.280;2023-08-06T07:30:25;98724.97;;;15.82;100.00
13080;BME280;6606;49.154;9.280;2023-08-06T07:33:07;98734.53;;;15.95;100.00
13080;BME280;6606;49.154;9.280;2023-08-06T07:35:50;98732.00;;;15.54;100.00
13080;BME280;6606;49.154;9.280;2023-08-06T07:38:31;98728.34;;;15.65;100.00
13080;BME280;6606;49.154;9.280;2023-08-06T07:41:13;98742.72;;;15.83;100.00
13080;BME280;6606;49.154;9.280;2023-08-06T07:43:55;98739.28;;;16.30;100.00
13080;BME280;6606;49.154;9.280;2023-08-06T07:46:36;98729.09;;;16.34;100.00
13080;BME280;6606;49.154;9.280;2023-08-06T07:49:19;98735.94;;;15.99;100.00
13080;BME280;6606;49.154;9.280;2023-08-06T07:52:02;98729.78;;;15.69;100.00
13080;BME280;6606;49.154;9.280;2023-08-06T07:54:44;98734.69;;;15.93;100.00
13080;BME280;6606;49.154;9.280;2023-08-06T07:57:26;98713.84;;;15.77;100.00
13080;BME280;6606;49.154;9.280;2023-08-06T08:00:08;98724.34;;;16.08;100.00
13080;BME280;6606;49.154;9.280;2023-08-06T08:02:53;98722.53;;;16.09;100.00
13080;BME280;6606;49.154;9.280;2023-08-06T08:05:35;98726.59;;;16.22;100.00
13080;BME280;6606;49.154;9.280;2023-08-06T08:08:18;98717.91;;;16.01;100.00
13080;BME280;6606;49.154;9.280;2023-08-06T08:11:00;98728.81;;;16.27;100.00
13080;BME280;6606;49.154;9.280;2023-08-06T08:13:42;98726.19;;;15.98;100.00
13080;BME280;6606;49.154;9.280;2023-08-06T08:16:24;98729.34;;;15.64;100.00
13080;BME280;6606;49.154;9.280;2023-08-06T08:19:06;98720.47;;;15.64;100.00
13080;BME280;6606;49.154;9.280;2023-08-06T08:21:47;98719.03;;;15.50;100.00
13080;BME280;6606;49.154;9.280;2023-08-06T08:24:30;98731.81;;;15.27;100.00
13080;BME280;6606;49.154;9.280;2023-08-06T08:27:13;98716.03;;;15.33;100.00
13080;BME280;6606;49.154;9.280;2023-08-06T08:29:55;98734.19;;;15.20;100.00
13080;BME280;6606;49.154;9.280;2023-08-06T08:32:37;98731.94;;;15.25;100.00
13080;BME280;6606;49.154;9.280;2023-08-06T08:35:18;98713.94;;;15.47;100.00
13080;BME280;6606;49.154;9.280;2023-08-06T08:38:00;98713.41;;;15.53;100.00
13080;BME280;6606;49.154;9.280;2023-08-06T08:40:46;98708.03;;;15.92;100.00
13080;BME280;6606;49.154;9.280;2023-08-06T08:43:29;98705.81;;;16.34;100.00
13080;BME280;6606;49.154;9.280;2023-08-06T08:46:13;98711.47;;;16.41;100.00
13080;BME280;6606;49.154;9.280;2023-08-06T08:48:55;98719.63;;;16.39;100.00
13080;BME280;6606;49.154;9.280;2023-08-06T08:51:37;98714.19;;;16.21;100.00
13080;BME280;6606;49.154;9.280;2023-08-06T08:54:20;98710.84;;;16.47;100.00
13080;BME280;6606;49.154;9.280;2023-08-06T08:57:05;98706.94;;;16.79;100.00
13080;BME280;6606;49.154;9.280;2023-08-06T08:59:47;98714.22;;;16.96;100.00
13080;BME280;6606;49.154;9.280;2023-08-06T09:02:30;98716.03;;;16.96;100.00
13080;BME280;6606;49.154;9.280;2023-08-06T09:05:14;98716.03;;;16.68;100.00
13080;BME280;6606;49.154;9.280;2023-08-06T09:08:01;98704.25;;;16.51;100.00
13080;BME280;6606;49.154;9.280;2023-08-06T09:10:43;98704.78;;;16.64;100.00
13080;BME280;6606;49.154;9.280;2023-08-06T09:13:27;98708.63;;;16.80;100.00
13080;BME280;6606;49.154;9.280;2023-08-06T09:16:08;98713.31;;;16.78;100.00
13080;BME280;6606;49.154;9.280;2023-08-06T09:18:50;98706.44;;;16.93;100.00
13080;BME280;6606;49.154;9.280;2023-08-06T09:21:32;98727.91;;;16.93;100.00
13080;BME280;6606;49.154;9.280;2023-08-06T09:24:14;98724.28;;;16.84;100.00
13080;BME280;6606;49.154;9.280;2023-08-06T09:26:56;98732.13;;;16.68;100.00
13080;BME280;6606;49.154;9.280;2023-08-06T09:29:41;98713.28;;;16.50;100.00
13080;BME280;6606;49.154;9.280;2023-08-06T09:32:24;98723.16;;;16.40;100.00
13080;BME280;6606;49.154;9.280;2023-08-06T09:35:06;98720.25;;;16.23;100.00
13080;BME280;6606;49.154;9.280;2023-08-06T09:38:05;98715.06;;;16.02;100.00
13080;BME280;6606;49.154;9.280;2023-08-06T09:40:48;98722.69;;;16.07;100.00
13080;BME280;6606;49.154;9.280;2023-08-06T09:43:30;98724.81;;;15.94;100.00
13080;BME280;6606;49.154;9.280;2023-08-06T09:46:14;98734.09;;;15.90;100.00
13080;BME280;6606;49.154;9.280;2023-08-06T09:48:56;98737.59;;;16.19;100.00
13080;BME280;6606;49.154;9.280;2023-08-06T09:51:38;98728.69;;;16.28;100.00
13080;BME280;6606;49.154;9.280;2023-08-06T09:54:22;98728.53;;;16.77;100.00
13080;BME280;6606;49.154;9.280;2023-08-06T09:57:05;98735.56;;;16.41;100.00
13080;BME280;6606;49.154;9.280;2023-08-06T09:59:47;98748.69;;;16.91;100.00
13080;BME280;6606;49.154;9.280;2023-08-06T10:02:32;98725.63;;;16.98;100.00
13080;BME280;6606;49.154;9.280;2023-08-06T10:05:15;98738.56;;;17.30;100.00
13080;BME280;6606;49.154;9.280;2023-08-06T10:07:57;98724.16;;;17.31;100.00
13080;BME280;6606;49.154;9.280;2023-08-06T10:10:40;98730.72;;;17.47;100.00
13080;BME280;6606;49.154;9.280;2023-08-06T10:13:23;98736.66;;;17.23;100.00
13080;BME280;6606;49.154;9.280;2023-08-06T10:16:06;98745.28;;;16.89;100.00
13080;BME280;6606;49.154;9.280;2023-08-06T10:18:50;98731.06;;;16.41;100.00
13080;BME280;6606;49.154;9.280;2023-08-06T10:21:32;98729.09;;;16.43;100.00
13080;BME280;6606;49.154;9.280;2023-08-06T10:24:14;98724.63;;;16.24;100.00
13080;BME280;6606;49.154;9.280;2023-08-06T10:26:59;98719.28;;;16.24;100.00
13080;BME280;6606;49.154;9.280;2023-08-06T10:29:41;98720.00;;;16.07;100.00
13080;BME280;6606;49.154;9.280;2023-08-06T10:32:46;98736.47;;;16.22;100.00
13080;BME280;6606;49.154;9.280;2023-08-06T10:35:30;98735.56;;;15.74;100.00
13080;BME280;6606;49.154;9.280;2023-08-06T10:38:14;98731.56;;;15.69;100.00
13080;BME280;6606;49.154;9.280;2023-08-06T10:41:01;98728.19;;;15.86;100.00
13080;BME280;6606;49.154;9.280;2023-08-06T10:43:43;98744.00;;;15.79;100.00
13080;BME280;6606;49.154;9.280;2023-08-06T10:46:27;98731.75;;;15.77;100.00
13080;BME280;6606;49.154;9.280;2023-08-06T10:49:10;98750.31;;;15.78;100.00
13080;BME280;6606;49.154;9.280;2023-08-06T10:51:54;98747.22;;;15.83;100.00
13080;BME280;6606;49.154;9.280;2023-08-06T10:54:36;98747.50;;;15.90;100.00
13080;BME280;6606;49.154;9.280;2023-08-06T10:57:19;98749.47;;;15.68;100.00
13080;BME280;6606;49.154;9.280;2023-08-06T11:00:01;98745.66;;;16.00;100.00
13080;BME280;6606;49.154;9.280;2023-08-06T11:02:43;98736.38;;;16.04;100.00
13080;BME280;6606;49.154;9.280;2023-08-06T11:05:25;98736.06;;;16.07;100.00
13080;BME280;6606;49.154;9.280;2023-08-06T11:08:08;98748.03;;;16.22;100.00
13080;BME280;6606;49.154;9.280;2023-08-06T11:10:50;98765.81;;;16.04;100.00
13080;BME280;6606;49.154;9.280;2023-08-06T11:13:32;98737.09;;;15.67;100.00
13080;BME280;6606;49.154;9.280;2023-08-06T11:16:14;98737.06;;;15.87;100.00
13080;BME280;6606;49.154;9.280;2023-08-06T11:18:57;98745.47;;;16.21;100.00
13080;BME280;6606;49.154;9.280;2023-08-06T11:21:40;98748.75;;;16.05;100.00
13080;BME280;6606;49.154;9.280;2023-08-06T11:24:25;98753.69;;;15.71;100.00
13080;BME280;6606;49.154;9.280;2023-08-06T11:27:11;98752.56;;;16.02;100.00
13080;BME280;6606;49.154;9.280;2023-08-06T11:29:53;98755.09;;;16.04;100.00
13080;BME280;6606;49.154;9.280;2023-08-06T11:32:44;98760.19;;;16.07;100.00
13080;BME280;6606;49.154;9.280;2023-08-06T11:35:26;98745.94;;;16.06;100.00
13080;BME280;6606;49.154;9.280;2023-08-06T11:38:08;98779.09;;;15.96;100.00
13080;BME280;6606;49.154;9.280;2023-08-06T11:40:51;98778.63;;;16.00;100.00
13080;BME280;6606;49.154;9.280;2023-08-06T11:43:33;98794.88;;;16.09;100.00
13080;BME280;6606;49.154;9.280;2023-08-06T11:46:15;98777.50;;;16.03;100.00
13080;BME280;6606;49.154;9.280;2023-08-06T11:48:58;98787.25;;;15.84;100.00
13080;BME280;6606;49.154;9.280;2023-08-06T11:51:40;98778.81;;;15.79;100.00
13080;BME280;6606;49.154;9.280;2023-08-06T11:54:30;98814.75;;;15.36;100.00
13080;BME280;6606;49.154;9.280;2023-08-06T11:57:15;98792.34;;;15.28;100.00
13080;BME280;6606;49.154;9.280;2023-08-06T11:59:58;98793.06;;;14.89;100.00
13080;BME280;6606;49.154;9.280;2023-08-06T12:02:40;98794.50;;;14.93;100.00
13080;BME280;6606;49.154;9.280;2023-08-06T12:05:23;98787.53;;;14.81;100.00
13080;BME280;6606;49.154;9.280;2023-08-06T12:08:05;98793.06;;;14.59;100.00
13080;BME280;6606;49.154;9.280;2023-08-06T12:10:47;98801.19;;;14.78;100.00
13080;BME280;6606;49.154;9.280;2023-08-06T12:13:32;98820.97;;;14.66;100.00
13080;BME280;6606;49.154;9.280;2023-08-06T12:16:14;98825.84;;;14.82;100.00
13080;BME280;6606;49.154;9.280;2023-08-06T12:18:58;98837.88;;;14.76;100.00
13080;BME280;6606;49.154;9.280;2023-08-06T12:21:39;98825.44;;;14.65;100.00
13080;BME280;6606;49.154;9.280;2023-08-06T12:24:21;98819.97;;;14.67;100.00
13080;BME280;6606;49.154;9.280;2023-08-06T12:27:03;98831.38;;;14.90;100.00
13080;BME280;6606;49.154;9.280;2023-08-06T12:29:47;98833.63;;;14.94;100.00
13080;BME280;6606;49.154;9.280;2023-08-06T12:32:30;98830.41;;;14.70;100.00
13080;BME280;6606;49.154;9.280;2023-08-06T12:35:11;98831.94;;;14.93;100.00
13080;BME280;6606;49.154;9.280;2023-08-06T12:37:54;98836.09;;;15.17;100.00
13080;BME280;6606;49.154;9.280;2023-08-06T12:40:37;98848.13;;;15.32;100.00
13080;BME280;6606;49.154;9.280;2023-08-06T12:43:19;98855.41;;;15.21;100.00
13080;BME280;6606;49.154;9.280;2023-08-06T12:46:02;98854.06;;;15.05;100.00
13080;BME280;6606;49.154;9.280;2023-08-06T12:48:44;98867.31;;;15.07;100.00
13080;BME280;6606;49.154;9.280;2023-08-06T12:51:29;98871.75;;;14.96;100.00
13080;BME280;6606;49.154;9.280;2023-08-06T12:54:10;98892.25;;;14.86;100.00
13080;BME280;6606;49.154;9.280;2023-08-06T12:56:52;98875.28;;;14.97;100.00
13080;BME280;6606;49.154;9.280;2023-08-06T12:59:34;98878.06;;;15.16;100.00
13080;BME280;6606;49.154;9.280;2023-08-06T13:02:18;98882.00;;;15.53;100.00
13080;BME280;6606;49.154;9.280;2023-08-06T13:05:00;98884.47;;;15.75;100.00
13080;BME280;6606;49.154;9.280;2023-08-06T13:07:43;98884.25;;;16.17;100.00
13080;BME280;6606;49.154;9.280;2023-08-06T13:10:25;98896.78;;;15.97;100.00
13080;BME280;6606;49.154;9.280;2023-08-06T13:13:08;98893.53;;;15.94;100.00
13080;BME280;6606;49.154;9.280;2023-08-06T13:15:50;98905.56;;;15.59;100.00
13080;BME280;6606;49.154;9.280;2023-08-06T13:18:33;98930.38;;;15.61;100.00
13080;BME280;6606;49.154;9.280;2023-08-06T13:21:15;98911.09;;;15.36;100.00
13080;BME280;6606;49.154;9.280;2023-08-06T13:23:57;98915.44;;;15.07;100.00
13080;BME280;6606;49.154;9.280;2023-08-06T13:26:38;98920.97;;;15.15;100.00
13080;BME280;6606;49.154;9.280;2023-08-06T13:29:20;98933.31;;;15.27;100.00
13080;BME280;6606;49.154;9.280;2023-08-06T13:32:02;98939.53;;;15.07;100.00
13080;BME280;6606;49.154;9.280;2023-08-06T13:34:45;98936.44;;;15.32;100.00
13080;BME280;6606;49.154;9.280;2023-08-06T13:37:27;98935.47;;;15.74;100.00
13080;BME280;6606;49.154;9.280;2023-08-06T13:40:09;98932.84;;;15.83;100.00
13080;BME280;6606;49.154;9.280;2023-08-06T13:42:51;98941.75;;;16.13;100.00
13080;BME280;6606;49.154;9.280;2023-08-06T13:45:33;98937.41;;;16.32;100.00
13080;BME280;6606;49.154;9.280;2023-08-06T13:48:15;98936.69;;;16.29;100.00
13080;BME280;6606;49.154;9.280;2023-08-06T13:50:58;98942.09;;;16.68;100.00
13080;BME280;6606;49.154;9.280;2023-08-06T13:53:40;98942.41;;;16.65;100.00
13080;BME280;6606;49.154;9.280;2023-08-06T13:56:22;98946.22;;;16.73;100.00
13080;BME280;6606;49.154;9.280;2023-08-06T13:59:04;98953.91;;;16.37;100.00
13080;BME280;6606;49.154;9.280;2023-08-06T14:01:46;98962.06;;;16.06;100.00
13080;BME280;6606;49.154;9.280;2023-08-06T14:04:28;98966.34;;;16.38;100.00
13080;BME280;6606;49.154;9.280;2023-08-06T14:07:11;98968.88;;;16.20;100.00
13080;BME280;6606;49.154;9.280;2023-08-06T14:09:53;98969.41;;;16.04;100.00
13080;BME280;6606;49.154;9.280;2023-08-06T14:12:35;98979.22;;;15.94;100.00
13080;BME280;6606;49.154;9.280;2023-08-06T14:15:17;98976.41;;;15.86;100.00
13080;BME280;6606;49.154;9.280;2023-08-06T14:17:58;98984.53;;;15.74;100.00
13080;BME280;6606;49.154;9.280;2023-08-06T14:20:40;98983.38;;;15.67;100.00
13080;BME280;6606;49.154;9.280;2023-08-06T14:23:23;98997.50;;;15.27;100.00